Rejestracja

Wszystkie dane podawane są w czasie UTC za wyjątkiem miejsc gdzie jest jednoznacznie podane, że jest inaczej. Dane podawane w serwisie mają charakter informacyjny!!!
Informacje w sprawie dostępu do serwisu pod numerem tel. +48 261-828-138

Aktualna Pogoda
 
Pogoda w Polsce
19°C Szczecin 16°C Suwałki 19°C Warszawa 21°C Poznan
21°C Opole 20°C Kraków 22°C Rzeszów
Więcej miast w Polsce

Pogoda w Europie
19°C Berlin 16°C Paryz 16°C Bruksela 16°C Oslo
21°C Praga 23°C Zagrzeb
Więcej miast w Europie

Metary wojskowe test
METAR EPCE 290000Z 11009KT 9999 OVC020 18/16 Q1000 RMK 183 084 8/8=
METAR EPDA 290000Z 11007KT 090V150 9999 VCTS FEW029CB BKN035 BKN129 18/16 Q0998 RMK 183 087 7/2=
METAR EPDE 290000Z AUTO 10004KT 9999 ///136 ///145 21/17 Q1000 RMK 214 078 ///=
METAR EPIR 290000Z 11016KT 9999 -TSRA SCT040CB BKN060 19/18 Q0997 RMK 189 095 7/3=
METAR EPKS 290000Z 12008KT CAVOK 19/17 Q0996 RMK 189 089 7/7=
METAR EPLK 290000Z AUTO 03008G56KT 9000 19/18 Q0999 RMK 190 094=
METAR EPLY 290000Z 09010KT 9999 BKN200 19/17 Q0999 RMK 191 088 6/6=
METAR EPMB 290000Z 10006KT 9999 FEW018 BKN200 18/16 Q1000 RMK 182 087 7/2=
METAR EPMI 290000Z 08006KT 9999 SCT030 BKN120 18/17 Q0997 RMK 180 093 7/3=
METAR EPMM 290000Z 09008KT 9999 OVC070 19/18 Q1001 RMK 192 095 8/8=
METAR EPOK 290000Z 09009KT 9999 OVC023 17/16 Q1001 RMK 174 091 8/8=
METAR EPPR 290000Z AUTO 10004KT VV020 19/16 Q1000 RMK 188 081 ///=
METAR EPPW 290000Z 10012KT 9999 SCT050 BKN100 19/18 Q0997 RMK 188 094 7/4=
METAR EPSN 290000Z 06008KT 9999 -SHRA BKN020CB BKN040 17/17 Q0997 RMK 171 097 7/5=
METAR EPTM 290000Z AUTO 13004KT FEW126 19/18 Q0999 RMK 188 094 ///=


 
Informacje ogólne
Pogoda
Warszawa
Temperatura: -°C
Wiatr: - m/s
Ciśnienie: - hPa
Zjawiska: Brak
Temp. max: - °C
Temp. min: - °C


Dane astronomiczne
Warszawa:
Dzien: 16:43 h
Noc: 07:17 h


Using HW VSP powered by HW group.

Prawa autorskie©2007 SSH SZ RP. Wszelkie prawa zastrzeżone.